createdAt,value
2018-11-14T00:02:09.135Z,101801.95
2018-11-14T00:04:36.035Z,101805.64
2018-11-14T00:07:02.911Z,101802.11
2018-11-14T00:09:29.822Z,101807.95
2018-11-14T00:11:57.531Z,101808.39
2018-11-14T00:14:24.406Z,101803.22
2018-11-14T00:16:51.304Z,101799.45
2018-11-14T00:19:18.253Z,101796.41
2018-11-14T00:21:45.455Z,101797.61
2018-11-14T00:24:11.949Z,101799.35
2018-11-14T00:26:38.867Z,101804.18
2018-11-14T00:29:05.752Z,101798.56
2018-11-14T00:31:32.611Z,101803.73
2018-11-14T00:33:59.483Z,101800.46
2018-11-14T00:36:27.386Z,101794.28
2018-11-14T00:38:54.266Z,101792.06
2018-11-14T00:41:21.124Z,101788.72
2018-11-14T00:43:48.000Z,101784.02
2018-11-14T00:46:14.864Z,101779.82
2018-11-14T00:48:41.723Z,101781.19
2018-11-14T00:51:08.595Z,101784.88
2018-11-14T00:53:35.467Z,101791.61
2018-11-14T00:56:02.331Z,101790.91
2018-11-14T00:58:29.204Z,101788.48
2018-11-14T01:00:56.100Z,101794.72
2018-11-14T01:03:22.975Z,101799.90
2018-11-14T01:05:49.858Z,101785.33
2018-11-14T01:08:16.720Z,101790.03
2018-11-14T01:10:43.587Z,101797.70
2018-11-14T01:13:10.459Z,101786.50
2018-11-14T01:15:37.320Z,101787.67
2018-11-14T01:18:04.787Z,101788.93
2018-11-14T01:20:31.299Z,101794.20
2018-11-14T01:22:58.163Z,101793.11
2018-11-14T01:25:25.036Z,101796.41
2018-11-14T01:27:51.908Z,101797.73
2018-11-14T01:30:20.083Z,101794.20
2018-11-14T01:32:47.460Z,101792.69
2018-11-14T01:35:15.006Z,101794.55
2018-11-14T01:37:41.891Z,101796.08
2018-11-14T01:40:10.976Z,101805.51
2018-11-14T01:42:37.850Z,101801.56
2018-11-14T01:45:07.196Z,101808.48
2018-11-14T01:47:34.129Z,101810.89
2018-11-14T01:50:01.429Z,101804.16
2018-11-14T01:52:28.333Z,101809.20
2018-11-14T01:54:55.232Z,101805.59
2018-11-14T01:57:22.107Z,101800.72
2018-11-14T01:59:49.000Z,101800.68
2018-11-14T02:02:15.873Z,101797.23
2018-11-14T02:04:42.738Z,101800.13
2018-11-14T02:07:09.608Z,101799.39
2018-11-14T02:09:36.499Z,101791.03
2018-11-14T02:12:03.761Z,101788.53
2018-11-14T02:14:30.663Z,101790.94
2018-11-14T02:16:57.541Z,101790.41
2018-11-14T02:19:24.403Z,101793.23
2018-11-14T02:21:51.345Z,101789.72
2018-11-14T02:24:18.205Z,101785.27
2018-11-14T02:26:45.072Z,101792.49
2018-11-14T02:29:11.949Z,101783.79
2018-11-14T02:31:38.827Z,101778.38
2018-11-14T02:34:05.784Z,101781.89
2018-11-14T02:36:32.647Z,101782.93
2018-11-14T02:38:59.523Z,101781.50
2018-11-14T02:41:26.386Z,101782.33
2018-11-14T02:43:53.275Z,101781.54
2018-11-14T02:46:20.137Z,101778.08
2018-11-14T02:48:47.000Z,101773.94
2018-11-14T02:51:29.582Z,101771.95
2018-11-14T02:53:56.580Z,101775.10
2018-11-14T02:56:23.552Z,101773.56
2018-11-14T02:58:50.442Z,101772.45
2018-11-14T03:01:17.299Z,101767.75
2018-11-14T03:03:44.177Z,101764.73
2018-11-14T03:06:11.044Z,101763.52
2018-11-14T03:08:38.204Z,101759.34
2018-11-14T03:11:05.144Z,101749.11
2018-11-14T03:13:32.007Z,101744.27
2018-11-14T03:15:58.897Z,101738.92
2018-11-14T03:18:25.759Z,101732.78
2018-11-14T03:20:52.617Z,101737.91
2018-11-14T03:23:19.474Z,101740.62
2018-11-14T03:25:46.348Z,101743.75
2018-11-14T03:28:13.204Z,101736.80
2018-11-14T03:30:40.084Z,101741.28
2018-11-14T03:33:06.949Z,101741.32
2018-11-14T03:35:39.550Z,101736.48
2018-11-14T03:38:06.412Z,101738.16
2018-11-14T03:40:33.275Z,101734.02
2018-11-14T03:43:00.138Z,101726.21
2018-11-14T03:45:26.999Z,101725.98
2018-11-14T03:47:53.879Z,101722.38
2018-11-14T03:50:20.748Z,101720.22
2018-11-14T03:52:47.658Z,101720.13
2018-11-14T03:55:14.525Z,101713.23
2018-11-14T03:57:41.397Z,101722.53
2018-11-14T04:00:12.354Z,101719.13
2018-11-14T04:02:39.219Z,101721.99
2018-11-14T04:05:06.336Z,101715.73
2018-11-14T04:07:33.367Z,101717.58
2018-11-14T04:10:00.232Z,101723.95
2018-11-14T04:12:27.126Z,101726.06
2018-11-14T04:14:53.983Z,101721.56
2018-11-14T04:17:20.842Z,101730.88
2018-11-14T04:19:47.715Z,101731.68
2018-11-14T04:22:14.600Z,101731.79
2018-11-14T04:24:41.500Z,101736.73
2018-11-14T04:27:08.481Z,101740.72
2018-11-14T04:29:35.343Z,101746.50
2018-11-14T04:32:03.316Z,101735.05
2018-11-14T04:34:30.196Z,101741.05
2018-11-14T04:36:57.139Z,101737.03
2018-11-14T04:39:24.012Z,101734.08
2018-11-14T04:41:51.008Z,101739.50
2018-11-14T04:44:17.875Z,101730.08
2018-11-14T04:46:44.729Z,101729.38
2018-11-14T04:49:11.599Z,101738.94
2018-11-14T04:51:38.469Z,101729.76
2018-11-14T04:54:05.323Z,101731.88
2018-11-14T04:56:32.178Z,101725.68
2018-11-14T04:58:59.068Z,101715.89
2018-11-14T05:01:25.943Z,101723.45
2018-11-14T05:03:52.807Z,101732.92
2018-11-14T05:06:19.669Z,101732.88
2018-11-14T05:08:46.535Z,101739.15
2018-11-14T05:11:13.412Z,101737.02
2018-11-14T05:13:40.280Z,101733.02
2018-11-14T05:16:07.138Z,101734.33
2018-11-14T05:18:34.045Z,101729.94
2018-11-14T05:21:00.895Z,101723.14
2018-11-14T05:23:28.224Z,101725.05
2018-11-14T05:25:55.095Z,101723.46
2018-11-14T05:28:21.999Z,101715.52
2018-11-14T05:30:48.861Z,101719.78
2018-11-14T05:33:15.752Z,101713.25
2018-11-14T05:35:42.612Z,101718.22
2018-11-14T05:38:09.487Z,101714.67
2018-11-14T05:40:36.359Z,101717.59
2018-11-14T05:43:03.309Z,101719.13
2018-11-14T05:45:30.307Z,101723.89
2018-11-14T05:47:57.063Z,101721.78
2018-11-14T05:50:24.066Z,101715.16
2018-11-14T05:52:50.980Z,101722.73
2018-11-14T05:55:17.891Z,101721.27
2018-11-14T05:57:44.926Z,101723.34
2018-11-14T06:00:16.300Z,101714.03
2018-11-14T06:02:43.863Z,101711.52
2018-11-14T06:05:10.723Z,101709.33
2018-11-14T06:07:37.990Z,101704.13
2018-11-14T06:10:05.734Z,101711.68
2018-11-14T06:12:32.601Z,101714.72
2018-11-14T06:14:59.455Z,101717.75
2018-11-14T06:17:26.347Z,101720.77
2018-11-14T06:19:53.215Z,101713.64
2018-11-14T06:22:20.082Z,101714.08
2018-11-14T06:24:46.979Z,101717.36
2018-11-14T06:27:13.839Z,101714.53
2018-11-14T06:29:40.786Z,101713.95
2018-11-14T06:32:07.844Z,101720.05
2018-11-14T06:34:34.691Z,101714.98
2018-11-14T06:37:01.572Z,101710.11
2018-11-14T06:39:28.430Z,101716.47
2018-11-14T06:41:55.315Z,101704.28
2018-11-14T06:44:22.204Z,101698.47
2018-11-14T06:46:49.075Z,101695.60
2018-11-14T06:49:15.939Z,101693.22
2018-11-14T06:51:42.828Z,101692.18
2018-11-14T06:54:09.932Z,101696.41
2018-11-14T06:56:36.799Z,101697.30
2018-11-14T06:59:03.863Z,101694.98
2018-11-14T07:01:30.576Z,101700.71
2018-11-14T07:03:57.596Z,101694.43
2018-11-14T07:06:24.611Z,101687.33
2018-11-14T07:08:51.491Z,101684.37
2018-11-14T07:11:18.366Z,101686.66
2018-11-14T07:13:45.292Z,101694.77
2018-11-14T07:16:12.132Z,101694.07
2018-11-14T07:18:39.010Z,101693.86
2018-11-14T07:21:05.915Z,101697.47
2018-11-14T07:23:32.841Z,101701.00
2018-11-14T07:25:59.666Z,101701.56
2018-11-14T07:28:26.535Z,101697.38
2018-11-14T07:30:53.391Z,101702.03
2018-11-14T07:33:20.262Z,101693.61
2018-11-14T07:35:47.139Z,101682.84
2018-11-14T07:38:35.528Z,101672.30
2018-11-14T07:41:03.559Z,101671.92
2018-11-14T07:43:30.859Z,101677.63
2018-11-14T07:45:57.811Z,101683.41
2018-11-14T07:48:24.712Z,101682.61
2018-11-14T07:50:51.610Z,101688.56
2018-11-14T07:53:18.769Z,101689.62
2018-11-14T07:55:45.648Z,101685.25
2018-11-14T07:58:12.516Z,101693.89
2018-11-14T08:00:39.378Z,101681.70
2018-11-14T08:03:06.259Z,101690.17
2018-11-14T08:05:33.141Z,101691.01
2018-11-14T08:08:00.132Z,101691.47
2018-11-14T08:10:26.900Z,101689.35
2018-11-14T08:12:53.786Z,101682.78
2018-11-14T08:15:20.655Z,101683.09
2018-11-14T08:17:47.515Z,101675.72
2018-11-14T08:20:14.419Z,101673.91
2018-11-14T08:22:41.668Z,101669.45
2018-11-14T08:25:08.556Z,101674.33
2018-11-14T08:27:35.815Z,101676.05
2018-11-14T08:30:02.983Z,101673.39
2018-11-14T08:32:29.854Z,101673.08
2018-11-14T08:34:56.707Z,101670.81
2018-11-14T08:37:23.611Z,101664.40
2018-11-14T08:39:50.499Z,101663.47
2018-11-14T08:42:17.363Z,101660.78
2018-11-14T08:44:44.270Z,101655.75
2018-11-14T08:47:11.136Z,101657.12
2018-11-14T08:49:37.991Z,101653.13
2018-11-14T08:52:04.872Z,101644.73
2018-11-14T08:54:31.736Z,101643.13
2018-11-14T08:56:58.594Z,101641.56
2018-11-14T08:59:25.479Z,101636.11
2018-11-14T09:01:52.335Z,101634.20
2018-11-14T09:04:19.191Z,101633.84
2018-11-14T09:06:46.789Z,101635.50
2018-11-14T09:09:13.663Z,101636.93
2018-11-14T09:11:40.524Z,101642.78
2018-11-14T09:14:07.409Z,101639.31
2018-11-14T09:16:34.335Z,101642.92
2018-11-14T09:19:01.219Z,101639.00
2018-11-14T09:21:28.077Z,101640.21
2018-11-14T09:23:54.999Z,101639.42
2018-11-14T09:26:21.827Z,101641.92
2018-11-14T09:28:48.711Z,101641.30
2018-11-14T09:31:15.591Z,101635.47
2018-11-14T09:33:42.462Z,101623.58
2018-11-14T09:36:09.332Z,101633.80
2018-11-14T09:38:36.203Z,101637.30
2018-11-14T09:41:03.589Z,101640.89
2018-11-14T09:43:30.435Z,101641.98
2018-11-14T09:45:57.300Z,101641.83
2018-11-14T09:48:24.244Z,101647.59
2018-11-14T09:50:51.061Z,101646.48
2018-11-14T09:53:18.137Z,101647.55
2018-11-14T09:55:46.163Z,101658.91
2018-11-14T09:58:13.048Z,101653.00
2018-11-14T10:00:39.965Z,101655.36
2018-11-14T10:03:11.840Z,101661.41
2018-11-14T10:05:38.797Z,101652.25
2018-11-14T10:08:05.620Z,101646.76
2018-11-14T10:10:32.469Z,101642.76
2018-11-14T10:12:59.347Z,101643.15
2018-11-14T10:15:26.275Z,101649.53
2018-11-14T10:17:53.213Z,101640.94
2018-11-14T10:20:21.391Z,101645.09
2018-11-14T10:22:48.318Z,101641.94
2018-11-14T10:25:15.791Z,101642.30
2018-11-14T10:27:44.295Z,101633.81
2018-11-14T10:30:16.556Z,101630.39
2018-11-14T10:32:44.112Z,101631.48
2018-11-14T10:35:11.159Z,101624.55
2018-11-14T10:37:38.404Z,101613.64
2018-11-14T10:40:06.901Z,101613.64
2018-11-14T10:42:33.764Z,101610.77
2018-11-14T10:45:00.648Z,101610.28
2018-11-14T10:47:27.570Z,101606.03
2018-11-14T10:49:54.507Z,101603.70
2018-11-14T10:52:21.388Z,101601.08
2018-11-14T10:54:48.260Z,101597.52
2018-11-14T10:57:15.124Z,101596.03
2018-11-14T10:59:42.020Z,101595.35
2018-11-14T11:02:14.627Z,101588.92
2018-11-14T11:04:47.188Z,101597.29
2018-11-14T11:07:19.837Z,101595.26
2018-11-14T11:09:52.448Z,101595.89
2018-11-14T11:12:25.063Z,101594.42
2018-11-14T11:14:57.666Z,101585.23
2018-11-14T11:17:45.096Z,101581.50
2018-11-14T11:20:11.995Z,101582.13
2018-11-14T11:22:38.874Z,101590.20
2018-11-14T11:25:05.877Z,101585.08
2018-11-14T11:27:32.751Z,101579.05
2018-11-14T11:29:59.611Z,101576.39
2018-11-14T11:32:26.477Z,101567.47
2018-11-14T11:34:53.389Z,101570.68
2018-11-14T11:37:22.536Z,101566.63
2018-11-14T11:39:58.318Z,101560.40
2018-11-14T11:42:25.284Z,101548.82
2018-11-14T11:44:54.246Z,101547.27
2018-11-14T11:47:21.282Z,101541.30
2018-11-14T11:49:48.293Z,101537.49
2018-11-14T11:52:16.289Z,101539.45
2018-11-14T11:54:48.894Z,101542.41
2018-11-14T11:57:16.876Z,101533.67
2018-11-14T11:59:51.979Z,101533.01
2018-11-14T12:02:19.948Z,101529.24
2018-11-14T12:04:47.840Z,101519.78
2018-11-14T12:07:14.813Z,101523.94
2018-11-14T12:09:43.695Z,101521.80
2018-11-14T12:12:16.108Z,101527.29
2018-11-14T12:14:43.013Z,101526.98
2018-11-14T12:17:09.911Z,101526.05
2018-11-14T12:19:36.936Z,101523.97
2018-11-14T12:22:03.851Z,101519.04
2018-11-14T12:24:30.807Z,101517.15
2018-11-14T12:26:57.695Z,101517.17
2018-11-14T12:29:24.542Z,101516.08
2018-11-14T12:31:51.455Z,101516.44
2018-11-14T12:34:18.317Z,101512.50
2018-11-14T12:36:45.204Z,101510.30
2018-11-14T12:39:12.109Z,101507.70
2018-11-14T12:41:39.041Z,101509.84
2018-11-14T12:44:05.923Z,101512.38
2018-11-14T12:46:32.792Z,101511.34
2018-11-14T12:48:59.715Z,101511.42
2018-11-14T12:51:26.597Z,101504.13
2018-11-14T12:53:53.546Z,101504.41
2018-11-14T12:56:20.432Z,101501.70
2018-11-14T12:58:47.472Z,101502.83
2018-11-14T13:01:14.355Z,101501.70
2018-11-14T13:03:50.594Z,101502.36
2018-11-14T13:06:17.474Z,101501.90
2018-11-14T13:08:44.360Z,101501.43
2018-11-14T13:11:11.256Z,101491.63
2018-11-14T13:13:44.391Z,101485.66
2018-11-14T13:16:11.299Z,101480.76
2018-11-14T13:18:38.161Z,101477.00
2018-11-14T13:21:05.304Z,101484.19
2018-11-14T13:23:32.178Z,101486.95
2018-11-14T13:25:59.061Z,101484.06
2018-11-14T13:28:25.940Z,101484.91
2018-11-14T13:30:52.802Z,101487.71
2018-11-14T13:33:19.681Z,101486.57
2018-11-14T13:35:48.575Z,101482.95
2018-11-14T13:38:15.471Z,101481.14
2018-11-14T13:40:42.387Z,101486.64
2018-11-14T13:43:09.368Z,101488.13
2018-11-14T13:45:36.153Z,101482.42
2018-11-14T13:48:03.352Z,101484.29
2018-11-14T13:50:38.255Z,101482.31
2018-11-14T13:53:04.968Z,101481.30
2018-11-14T13:55:31.844Z,101477.36
2018-11-14T13:58:00.743Z,101473.87
2018-11-14T14:00:27.636Z,101475.89
2018-11-14T14:02:54.575Z,101483.03
2018-11-14T14:05:22.819Z,101485.22
2018-11-14T14:07:49.783Z,101493.86
2018-11-14T14:10:17.068Z,101488.02
2018-11-14T14:12:45.223Z,101490.35
2018-11-14T14:15:15.154Z,101495.27
2018-11-14T14:17:43.096Z,101485.00
2018-11-14T14:20:11.020Z,101489.83
2018-11-14T14:22:38.092Z,101492.37
2018-11-14T14:25:06.297Z,101495.69
2018-11-14T14:27:33.171Z,101490.95
2018-11-14T14:30:00.137Z,101487.96
2018-11-14T14:32:27.000Z,101488.73
2018-11-14T14:34:53.895Z,101491.73
2018-11-14T14:37:20.834Z,101493.15
2018-11-14T14:39:47.754Z,101488.87
2018-11-14T14:42:14.735Z,101491.16
2018-11-14T14:44:41.665Z,101492.29
2018-11-14T14:47:08.591Z,101491.92
2018-11-14T14:49:35.531Z,101482.49
2018-11-14T14:52:02.465Z,101480.56
2018-11-14T14:54:29.366Z,101475.72
2018-11-14T14:56:56.252Z,101474.16
2018-11-14T14:59:23.268Z,101481.77
2018-11-14T15:01:50.310Z,101477.71
2018-11-14T15:04:18.453Z,101477.38
2018-11-14T15:06:46.992Z,101480.23
2018-11-14T15:09:14.367Z,101474.79
2018-11-14T15:11:41.838Z,101477.64
2018-11-14T15:14:08.967Z,101473.39
2018-11-14T15:16:38.435Z,101468.98
2018-11-14T15:19:08.471Z,101470.38
2018-11-14T15:21:35.523Z,101478.61
2018-11-14T15:24:02.712Z,101473.27
2018-11-14T15:26:36.602Z,101477.84
2018-11-14T15:29:07.153Z,101471.93
2018-11-14T15:31:34.019Z,101472.14
2018-11-14T15:34:00.908Z,101461.41
2018-11-14T15:36:27.802Z,101464.89
2018-11-14T15:38:54.680Z,101471.37
2018-11-14T15:41:21.545Z,101470.57
2018-11-14T15:43:48.468Z,101466.91
2018-11-14T15:46:15.331Z,101470.70
2018-11-14T15:48:43.291Z,101471.34
2018-11-14T15:51:10.162Z,101473.55
2018-11-14T15:53:37.052Z,101471.50
2018-11-14T15:56:04.004Z,101464.95
2018-11-14T15:58:30.879Z,101469.20
2018-11-14T16:00:57.776Z,101460.05
2018-11-14T16:03:24.739Z,101467.55
2018-11-14T16:05:51.639Z,101463.27
2018-11-14T16:08:18.524Z,101463.83
2018-11-14T16:10:45.408Z,101466.42
2018-11-14T16:13:12.565Z,101465.88
2018-11-14T16:15:39.448Z,101474.21
2018-11-14T16:18:06.369Z,101477.55
2018-11-14T16:20:33.201Z,101476.16
2018-11-14T16:23:00.235Z,101469.87
2018-11-14T16:25:27.592Z,101471.81
2018-11-14T16:27:55.994Z,101472.75
2018-11-14T16:30:25.138Z,101482.17
2018-11-14T16:32:53.423Z,101478.11
2018-11-14T16:35:20.298Z,101471.83
2018-11-14T16:37:47.160Z,101475.54
2018-11-14T16:40:16.378Z,101471.09
2018-11-14T16:42:43.288Z,101468.88
2018-11-14T16:45:10.755Z,101472.28
2018-11-14T16:47:37.980Z,101471.56
2018-11-14T16:50:04.944Z,101474.15
2018-11-14T16:52:31.839Z,101472.57
2018-11-14T16:54:58.696Z,101477.36
2018-11-14T16:57:26.141Z,101478.03
2018-11-14T16:59:53.343Z,101474.77
2018-11-14T17:02:20.264Z,101472.38
2018-11-14T17:04:47.150Z,101471.64
2018-11-14T17:07:14.029Z,101474.23
2018-11-14T17:09:40.890Z,101475.71
2018-11-14T17:12:07.816Z,101483.67
2018-11-14T17:14:34.701Z,101478.20
2018-11-14T17:17:01.580Z,101489.30
2018-11-14T17:19:28.467Z,101482.91
2018-11-14T17:21:55.376Z,101489.00
2018-11-14T17:24:22.256Z,101487.44
2018-11-14T17:26:49.111Z,101491.42
2018-11-14T17:29:16.011Z,101492.81
2018-11-14T17:31:42.919Z,101483.92
2018-11-14T17:34:09.842Z,101485.95
2018-11-14T17:36:36.767Z,101491.88
2018-11-14T17:39:07.148Z,101492.80
2018-11-14T17:41:34.036Z,101492.98
2018-11-14T17:44:01.268Z,101493.83
2018-11-14T17:46:28.279Z,101486.14
2018-11-14T17:48:55.764Z,101491.33
2018-11-14T17:51:22.840Z,101488.54
2018-11-14T17:53:54.632Z,101488.56
2018-11-14T17:56:21.923Z,101485.95
2018-11-14T17:58:48.775Z,101485.50
2018-11-14T18:01:16.257Z,101487.24
2018-11-14T18:03:43.656Z,101485.69
2018-11-14T18:06:12.593Z,101482.45
2018-11-14T18:08:39.652Z,101483.10
2018-11-14T18:11:08.272Z,101485.50
2018-11-14T18:13:35.691Z,101486.60
2018-11-14T18:16:02.696Z,101488.64
2018-11-14T18:18:30.167Z,101490.13
2018-11-14T18:20:57.143Z,101489.38
2018-11-14T18:23:24.066Z,101486.96
2018-11-14T18:25:50.995Z,101491.42
2018-11-14T18:28:18.505Z,101495.19
2018-11-14T18:30:45.764Z,101491.50
2018-11-14T18:33:12.643Z,101491.77
2018-11-14T18:35:39.595Z,101495.10
2018-11-14T18:38:06.568Z,101495.30
2018-11-14T18:40:34.375Z,101492.14
2018-11-14T18:43:01.314Z,101497.13
2018-11-14T18:45:29.548Z,101488.83
2018-11-14T18:47:57.195Z,101490.28
2018-11-14T18:50:26.442Z,101492.34
2018-11-14T18:52:53.388Z,101490.12
2018-11-14T18:55:21.687Z,101479.10
2018-11-14T18:57:48.985Z,101476.81
2018-11-14T19:00:18.822Z,101479.92
2018-11-14T19:02:45.800Z,101478.63
2018-11-14T19:05:15.359Z,101483.37
2018-11-14T19:07:42.479Z,101482.91
2018-11-14T19:10:11.085Z,101480.05
2018-11-14T19:12:38.377Z,101479.20
2018-11-14T19:15:07.783Z,101476.98
2018-11-14T19:17:38.583Z,101473.80
2018-11-14T19:20:11.529Z,101471.90
2018-11-14T19:22:45.569Z,101475.31
2018-11-14T19:25:15.137Z,101474.69
2018-11-14T19:27:42.748Z,101468.98
2018-11-14T19:30:13.315Z,101471.95
2018-11-14T19:32:41.436Z,101466.28
2018-11-14T19:35:11.708Z,101463.44
2018-11-14T19:37:40.097Z,101464.16
2018-11-14T19:40:12.827Z,101463.60
2018-11-14T19:42:40.371Z,101465.66
2018-11-14T19:45:21.875Z,101461.88
2018-11-14T19:47:49.717Z,101462.36
2018-11-14T19:50:18.200Z,101463.80
2018-11-14T19:52:45.806Z,101463.44
2018-11-14T19:55:15.520Z,101457.79
2018-11-14T19:57:44.830Z,101454.94
2018-11-14T20:00:16.554Z,101457.76
2018-11-14T20:02:43.903Z,101455.35
2018-11-14T20:05:12.640Z,101455.83
2018-11-14T20:07:40.825Z,101451.30
2018-11-14T20:10:11.954Z,101451.69
2018-11-14T20:12:39.078Z,101450.45
2018-11-14T20:15:08.373Z,101450.17
2018-11-14T20:17:35.649Z,101460.64
2018-11-14T20:20:03.943Z,101460.84
2018-11-14T20:22:31.076Z,101456.55
2018-11-14T20:24:58.112Z,101461.28
2018-11-14T20:27:25.159Z,101463.61
2018-11-14T20:29:52.296Z,101463.70
2018-11-14T20:32:19.403Z,101466.64
2018-11-14T20:34:46.520Z,101462.84
2018-11-14T20:37:14.105Z,101459.05
2018-11-14T20:39:41.917Z,101460.34
2018-11-14T20:42:09.811Z,101462.22
2018-11-14T20:44:36.855Z,101454.16
2018-11-14T20:47:04.799Z,101457.68
2018-11-14T20:49:31.812Z,101461.09
2018-11-14T20:51:58.867Z,101457.55
2018-11-14T20:54:26.034Z,101460.91
2018-11-14T20:56:53.103Z,101466.84
2018-11-14T20:59:20.195Z,101466.27
2018-11-14T21:01:47.188Z,101461.94
2018-11-14T21:04:14.194Z,101465.47
2018-11-14T21:06:41.165Z,101466.53
2018-11-14T21:09:09.624Z,101463.70
2018-11-14T21:11:36.676Z,101468.86
2018-11-14T21:14:04.759Z,101468.86
2018-11-14T21:16:31.667Z,101472.55
2018-11-14T21:18:58.526Z,101468.28
2018-11-14T21:21:25.473Z,101471.92
2018-11-14T21:23:52.339Z,101466.02
2018-11-14T21:26:19.332Z,101464.36
2018-11-14T21:28:46.211Z,101457.67
2018-11-14T21:31:13.092Z,101456.04
2018-11-14T21:33:39.980Z,101456.77
2018-11-14T21:36:06.875Z,101456.28
2018-11-14T21:38:33.758Z,101459.88
2018-11-14T21:41:00.644Z,101454.90
2018-11-14T21:43:27.537Z,101456.40
2018-11-14T21:45:54.444Z,101457.80
2018-11-14T21:48:21.336Z,101441.06
2018-11-14T21:50:48.219Z,101446.70
2018-11-14T21:53:15.216Z,101440.41
2018-11-14T21:55:41.974Z,101444.08
2018-11-14T21:58:08.931Z,101446.35
2018-11-14T22:00:37.110Z,101444.01
2018-11-14T22:03:04.450Z,101440.59
2018-11-14T22:05:31.539Z,101428.78
2018-11-14T22:07:58.456Z,101437.36
2018-11-14T22:10:25.843Z,101435.05
2018-11-14T22:12:52.863Z,101436.34
2018-11-14T22:15:21.017Z,101443.87
2018-11-14T22:17:48.021Z,101436.59
2018-11-14T22:20:16.116Z,101434.00
2018-11-14T22:22:43.646Z,101431.41
2018-11-14T22:25:11.556Z,101435.19
2018-11-14T22:27:38.529Z,101436.54
2018-11-14T22:30:09.454Z,101444.69
2018-11-14T22:32:36.324Z,101436.94
2018-11-14T22:35:03.433Z,101433.58
2018-11-14T22:37:30.292Z,101437.17
2018-11-14T22:39:57.152Z,101441.55
2018-11-14T22:42:24.059Z,101441.28
2018-11-14T22:44:51.423Z,101442.34
2018-11-14T22:47:18.283Z,101445.66
2018-11-14T22:49:45.186Z,101444.70
2018-11-14T22:52:12.056Z,101441.60
2018-11-14T22:54:38.925Z,101438.66
2018-11-14T22:57:05.812Z,101439.35
2018-11-14T22:59:32.676Z,101439.21
2018-11-14T23:01:59.545Z,101447.69
2018-11-14T23:04:26.407Z,101450.18
2018-11-14T23:06:53.279Z,101455.70
2018-11-14T23:09:20.140Z,101447.50
2018-11-14T23:11:47.012Z,101453.58
2018-11-14T23:14:13.892Z,101446.86
2018-11-14T23:16:40.757Z,101446.67
2018-11-14T23:19:11.066Z,101453.86
2018-11-14T23:21:37.939Z,101446.35
2018-11-14T23:24:05.159Z,101449.44
2018-11-14T23:26:32.046Z,101446.75
2018-11-14T23:28:59.148Z,101443.99
2018-11-14T23:31:26.015Z,101443.36
2018-11-14T23:33:52.913Z,101446.86
2018-11-14T23:36:19.823Z,101445.76
2018-11-14T23:38:46.684Z,101450.47
2018-11-14T23:41:13.593Z,101440.36
2018-11-14T23:43:40.473Z,101444.19
2018-11-14T23:46:07.339Z,101449.06
2018-11-14T23:48:34.225Z,101445.84
2018-11-14T23:51:01.111Z,101445.76
2018-11-14T23:53:27.971Z,101438.01
2018-11-14T23:55:54.859Z,101441.52
2018-11-14T23:58:21.728Z,101446.27
